Clover, South Carolina
Current Conditions -  °F | °C
As of 9:54 AM on Wednesday 22 Oct 2014 (Local Time) from KAKH Reporting Station
Clear Clear  
Wind Chill: 55°   Ceiling: Unl
Heat Index: 55°   Visibility: 10mi
Dew Point: 37°   Wind: 14mph
Humidity: 51%   Direction: 360°N
Pressure: 30.09"   Gusts: 21mph
Location:  35.11°N, 81.23°W
Report Text: KAKH 221354Z AUTO 36012G18KT 10SM CLR 13/03 A3009 RMK AO2 SLP186 T01280028
Loading
Personal Weather Stations






























Interactive Weather Map
Tropical Storm Tracking
New forecast layout! Learn more

10-Day Weather Forecast

Advertisements
Track Severe Weather on mobile